首页
METAR-TAF:

METAR-TAF

机场 :

奧爾德尼島,

纬度: 49-43N, 经度: 002-12W, 海拔: 71米

当前天气观测

该预报发布于15小时和37分钟前的18:20 UTC
风速12节,风向东北
温度 6°C
湿度 87%
气压 1024 hPa
能见度10公里或以上
多云层高于1100英尺

METAR: EGJA 041820Z 05012KT 9999 BKN011 06/04 Q1024

时间: 09:57 (09:57 UTC)

预报

该预报发布于19小时和54分钟前的14:03 UTC
预报有效从04日的 15点(UTC)到 05日的 00点(UTC)
风速13节,风向东北
能見度: 7000
多云层高于700英尺
短暂存在
从 04日的 15点(UTC)到 04日的 17点(UTC)
能見度: 3000
多云层高于300英尺
轻雾
几率 30% :
短暂存在
从 04日的 15点(UTC)到 04日的 16点(UTC)
能見度: 1500
多云层高于100英尺
小毛毛雨
短暂存在
从 04日的 17点(UTC)到 04日的 19点(UTC)
能见度10公里或以上
多云层高于1200英尺
成为
从 04日的 19点(UTC)到 04日的 21点(UTC)
能见度10公里或以上
多云层高于1600英尺

TAF: EGJA 041403Z 0415/0500 04013KT 7000 BKN007 TEMPO 0415/0417 3000 BR BKN003 PROB30 TEMPO 0415/0416 1500 -DZ BKN001 TEMPO 0417/0419 9999 BKN012 BECMG 0419/0421 9999 BKN016

超过4000个机场的气象观测和天气预报(METAR&TAF报告)。

可查询的气象台以黄色和红色小点在地图上表示。

将鼠标移到小点上方,可查看气象台名称。

然后点击查看天气观测和预报。

如需切换地图:点击带黑十字的绿色按钮放大地图;点击带横线的绿色按钮缩小地图;或者点击绿色箭头查看邻近地区的地图。


METAR-TAF: